Terminal Aerodrome Forecast
Issued by NWS

Home | Current Version | Previous Version | Graphics & Text | Print | Product List | Glossary Off
Versions: 1 2 3 4 5 6 7 8 9 10 11 12 13 14

000
FTUS43 KDDC 151136
TAFGCK
TAF
KGCK 151136Z 1512/1612 03020G30KT P6SM FEW005 BKN011
     FM151400 03019G27KT P6SM OVC012
     FM151600 03019G27KT P6SM OVC020
     FM151700 02018KT P6SM OVC040
     FM152100 01017KT P6SM SCT060
     FM160600 35009KT P6SM FEW250=

USA.gov is the U.S. government's official web portal to all federal, state and local government web resources and services.